Latest Weather Observations for Batchelor

IDD60901

Issued at 7:21 pm CST Friday 22 November 2019 (issued every 10 minutes, with the page automatically refreshed every 10 minutes)

About weather observations | Map of Darwin area stations | Latest observations for Darwin area | Other Formats
Station Details ID: 014272 Name: BATCHELOR AIRPORT Lat: -13.05 Lon: 131.03 Height: 104.0 m
Data from the previous 72 hours. | See also: Recent months at Batchelor
Date/Time
CST
Temp
°C
App
Temp
°C
Dew
Point
°C
Rel
Hum
%
Delta-T
°C
Wind Press
QNH
hPa
Press
MSL
hPa
Rain since
9am
mm
Dir  Spd
km/h
Gust
km/h
Spd
kts
Gust
kts
22/07:00pm 28.7 32.1 22.0 67 4.5 W 7 13 4 7 1009.0 1008.2 0.0
22/06:30pm 29.6 31.8 21.8 63 5.3 WNW 13 22 7 12 1009.2 1008.4 0.0
22/06:00pm 30.1 32.7 22.0 62 5.5 WNW 11 19 6 10 1008.8 1008.0 0.0
22/05:30pm 28.8 31.2 21.6 65 4.8 WNW 11 19 6 10 1008.7 1007.9 0.0
22/05:00pm 28.7 30.5 20.4 60 5.5 WNW 11 17 6 9 1008.7 1007.9 0.0
22/04:30pm 28.7 29.9 19.1 56 6.2 WNW 11 22 6 12 1009.0 1008.2 0.0
22/04:00pm 29.4 30.4 20.3 58 6.0 W 15 22 8 12 1009.8 1009.0 0.0
22/03:30pm 30.8 31.9 21.3 57 6.4 WNW 17 26 9 14 1009.5 1008.7 0.0
22/03:00pm 33.0 35.2 21.2 50 8.0 NNW 11 17 6 9 1008.9 1008.1 0.0
22/02:30pm 34.2 35.8 19.1 41 10.0 NNW 9 15 5 8 1009.3 1008.5 0.0
22/02:00pm 34.5 36.2 18.1 37 10.7 N 6 13 3 7 1009.6 1008.8 0.0
22/01:30pm 35.8 37.9 20.1 40 10.6 NNE 9 19 5 10 1010.1 1009.3 0.0
22/01:00pm 35.3 37.5 19.6 39 10.5 N 7 17 4 9 1010.8 1010.1 0.0
22/12:30pm 34.4 36.7 20.7 44 9.2 NNW 9 17 5 9 1011.2 1010.5 0.0
22/12:00pm 34.6 37.8 22.3 48 8.5 N 9 20 5 11 1011.5 1010.8 0.0
22/11:30am 32.8 35.2 21.6 51 7.6 NW 11 20 6 11 1011.7 1011.0 0.0
22/11:00am 33.0 34.8 21.2 50 8.0 N 13 20 7 11 1012.0 1011.3 0.0
22/10:30am 32.5 35.7 22.3 55 7.0 NNW 9 17 5 9 1012.1 1011.4 0.0
22/10:00am 31.6 35.2 23.7 63 5.5 NW 11 17 6 9 1012.3 1011.6 0.0
22/09:30am 30.5 35.4 24.6 70 4.1 NNW 7 13 4 7 1012.3 1011.6 0.0
22/09:00am 29.7 33.3 24.3 73 3.8 N 13 19 7 10 1012.0 1011.3 0.0
22/08:30am 29.7 33.3 24.3 73 3.8 NNW 13 17 7 9 1011.8 1011.1 0.0
22/08:00am 29.0 33.7 23.9 74 3.5 N 6 11 3 6 1012.1 1011.4 0.0
22/07:30am 28.0 33.1 24.0 79 2.8 ESE 4 6 2 3 1012.0 1011.3 0.0
22/07:00am 26.7 32.4 24.4 87 1.6 N 2 4 1 2 1011.2 1010.5 0.0
22/06:30am 25.5 30.3 24.1 92 1.0 WNW 6 7 3 4 1011.3 1010.6 0.0
22/06:00am 25.0 30.0 23.2 90 1.2 NW 2 4 1 2 1010.3 1009.5 0.0
22/05:30am 25.5 30.4 23.6 89 1.3 NW 4 4 2 2 1009.9 1009.1 0.0
22/05:00am 25.7 30.6 23.7 89 1.4 NW 4 6 2 3 1009.6 1008.8 0.0
22/04:30am 25.4 30.8 23.3 88 1.4 CALM 0 0 0 0 1009.4 1008.6 0.0
22/04:00am 25.6 31.2 23.5 88 1.4 CALM 0 0 0 0 1009.0 1008.2 0.0
22/03:30am 26.0 31.3 23.7 87 1.6 NW 2 2 1 1 1008.8 1008.0 0.0
22/03:00am 25.9 31.5 23.6 87 1.6 CALM 0 0 0 0 1008.6 1007.8 0.0
22/02:30am 25.6 30.9 23.1 86 1.7 CALM 0 0 0 0 1008.8 1008.0 0.0
22/02:00am 25.9 31.0 23.4 86 1.7 NW 2 4 1 2 1008.9 1008.1 0.0
22/01:30am 26.1 31.2 23.4 85 1.9 NW 2 4 1 2 1009.0 1008.2 0.0
22/01:00am 26.4 31.3 23.7 85 1.9 NW 4 6 2 3 1009.2 1008.4 0.0
22/12:30am 26.6 31.5 23.7 84 2.0 NW 4 6 2 3 1009.6 1008.8 0.0
22/12:00am 26.8 31.7 23.7 83 2.1 NW 4 6 2 3 1009.8 1009.0 0.0
 
Date/Time
CST
Temp
°C
App
Temp
°C
Dew
Point
°C
Rel
Hum
%
Delta-T
°C
Wind Press
QNH
hPa
Press
MSL
hPa
Rain since
9am
mm
Dir  Spd
km/h
Gust
km/h
Spd
kts
Gust
kts
21/11:30pm 26.8 31.2 23.5 82 2.3 NW 6 7 3 4 1010.0 1009.2 0.0
21/11:00pm 27.3 31.7 23.5 80 2.6 NNW 6 9 3 5 1010.1 1009.3 0.0
21/10:30pm 27.9 32.1 23.5 77 3.0 NW 7 11 4 6 1010.1 1009.3 0.0
21/10:00pm 28.4 32.2 23.5 75 3.4 WNW 9 15 5 8 1009.8 1009.0 0.0
21/09:30pm 28.8 32.3 23.5 73 3.7 WNW 11 17 6 9 1009.7 1008.9 0.0
21/09:00pm 29.3 32.5 23.7 72 3.9 WNW 13 19 7 10 1009.4 1008.6 0.0
21/08:30pm 29.7 33.1 23.4 69 4.4 WNW 11 17 6 9 1009.2 1008.4 0.0
21/08:00pm 29.8 32.8 22.0 63 5.3 NW 9 15 5 8 1008.6 1007.8 0.0
21/07:30pm 29.7 31.4 19.4 54 6.7 NNW 9 13 5 7 1008.3 1007.5 0.0
21/07:00pm 30.3 32.9 20.0 54 6.8 NW 6 9 3 5 1008.1 1007.3 0.0
21/06:30pm 32.1 34.0 19.7 48 8.2 WNW 9 19 5 10 1008.3 1007.5 0.0
21/06:00pm 32.7 34.8 20.2 47 8.4 WNW 9 15 5 8 1007.5 1006.7 0.0
21/05:30pm 31.9 35.3 21.7 54 6.9 W 6 9 3 5 1007.4 1006.6 0.0
21/05:00pm 29.7 30.8 21.9 63 5.3 NW 19 24 10 13 1007.2 1006.4 0.0
21/04:30pm 33.1 35.8 23.4 56 6.8 NW 15 26 8 14 1007.0 1006.2 0.0
21/04:00pm 35.8 37.9 20.1 40 10.5 NNW 9 24 5 13 1006.8 1006.0 0.0
21/03:30pm 37.1 38.0 16.6 29 13.2 N 7 9 4 5 1006.7 1005.9 0.0
21/03:00pm 37.0 37.7 17.1 31 12.9 N 9 17 5 9 1007.1 1006.3 0.0
21/02:30pm 37.4 38.6 17.4 30 13.0 NNW 7 19 4 10 1007.6 1006.8 0.0
21/02:00pm 37.3 38.9 18.3 32 12.5 NNW 7 17 4 9 1007.9 1007.1 0.0
21/01:30pm 36.6 37.6 17.7 32 12.3 N 9 15 5 8 1008.5 1007.7 0.0
21/01:00pm 36.2 37.4 18.3 34 11.8 N 9 19 5 10 1009.2 1008.4 0.0
21/12:30pm 35.8 36.7 17.5 34 11.9 NNE 9 17 5 9 1009.8 1009.0 0.0
21/12:00pm 35.4 37.6 19.3 38 10.7 ENE 6 15 3 8 1010.1 1009.3 0.0
21/11:30am 35.0 36.5 18.1 36 11.0 NNW 7 17 4 9 1010.6 1009.9 0.0
21/11:00am 34.4 36.8 19.6 41 9.8 W 6 11 3 6 1011.0 1010.3 0.0
21/10:30am 33.5 36.4 20.6 46 8.7 WNW 6 13 3 7 1011.4 1010.7 0.0
21/10:00am 33.0 37.3 22.7 54 7.1 NW 4 9 2 5 1011.6 1010.9 0.0
21/09:30am 31.5 35.6 23.3 61 5.7 WSW 7 17 4 9 1011.9 1011.2 0.0
21/09:00am 30.5 35.0 23.7 67 4.7 WSW 6 9 3 5 1012.1 1011.4 0.0
21/08:30am 29.7 34.0 23.6 69 4.2 W 7 11 4 6 1011.9 1011.2 0.0
21/08:00am 28.6 33.3 22.6 70 4.1 SSW 2 4 1 2 1011.7 1011.0 0.0
21/07:30am 26.9 31.0 21.6 72 3.5 SSW 2 2 1 1 1011.3 1010.6 0.0
21/07:00am 25.3 29.7 21.4 79 2.6 CALM 0 0 0 0 1010.9 1010.2 0.0
21/06:30am 23.7 27.4 20.8 84 1.9 SSW 2 2 1 1 1010.5 1009.7 0.0
21/06:00am 23.6 26.8 20.5 83 2.0 SW 4 7 2 4 1010.3 1009.5 0.0
21/05:30am 23.5 27.1 20.6 84 1.9 NNW 2 7 1 4 1009.9 1009.1 0.0
21/05:00am 23.6 27.3 20.7 84 1.9 N 2 2 1 1 1009.6 1008.8 0.0
21/04:30am 23.4 27.5 20.7 85 1.8 CALM 0 0 0 0 1009.3 1008.5 0.0
21/04:00am 23.6 27.5 20.3 82 2.1 CALM 0 0 0 0 1008.8 1008.0 0.0
21/03:30am 23.9 27.9 20.6 82 2.2 CALM 0 0 0 0 1008.7 1007.9 0.0
21/03:00am 23.9 27.8 20.4 81 2.3 CALM 0 0 0 0 1008.7 1007.9 0.0
21/02:30am 24.2 28.2 20.5 80 2.4 CALM 0 0 0 0 1008.8 1008.0 0.0
21/02:00am 24.5 28.3 20.2 77 2.8 CALM 0 2 0 1 1009.0 1008.2 0.0
21/01:30am 25.0 28.6 20.5 76 3.0 N 2 4 1 2 1009.3 1008.5 0.0
21/01:00am 25.2 28.4 20.5 75 3.1 N 4 6 2 3 1009.6 1008.8 0.0
21/12:30am 24.9 28.1 20.4 76 2.9 NNW 4 6 2 3 1009.8 1009.0 0.0
21/12:00am 25.4 28.8 20.2 73 3.4 NNW 2 4 1 2 1009.9 1009.1 0.0
 
Date/Time
CST
Temp
°C
App
Temp
°C
Dew
Point
°C
Rel
Hum
%
Delta-T
°C
Wind Press
QNH
hPa
Press
MSL
hPa
Rain since
9am
mm
Dir  Spd
km/h
Gust
km/h
Spd
kts
Gust
kts
20/11:30pm 25.7 28.7 20.0 71 3.7 NNW 4 6 2 3 1010.1 1009.3 0.0
20/11:00pm 25.9 28.5 20.0 70 3.8 NNW 6 7 3 4 1010.3 1009.5 0.0
20/10:30pm 26.2 29.3 20.3 70 3.9 W 4 6 2 3 1010.1 1009.3 0.0
20/10:00pm 26.6 29.8 19.7 66 4.5 WSW 2 4 1 2 1009.8 1009.0 0.0
20/09:30pm 26.7 29.2 19.1 63 4.9 WSW 4 7 2 4 1009.4 1008.6 0.0
20/09:00pm 27.2 29.1 19.0 61 5.3 W 7 11 4 6 1009.1 1008.3 0.0
20/08:30pm 27.1 29.2 18.9 61 5.3 WNW 6 7 3 4 1008.9 1008.1 0.0
20/08:00pm 27.7 29.9 19.5 61 5.3 W 7 11 4 6 1008.6 1007.8 0.0
20/07:30pm 28.1 30.5 20.1 62 5.3 W 7 13 4 7 1008.6 1007.8 0.0
20/07:00pm 28.6 30.1 20.6 62 5.3 W 13 20 7 11 1008.4 1007.6 0.0
20/06:30pm 29.7 30.6 20.0 56 6.4 NW 15 26 8 14 1008.0 1007.2 0.0
20/06:00pm 30.7 31.3 20.3 53 6.9 NW 17 30 9 16 1007.6 1006.8 0.0
20/05:30pm 31.0 32.2 20.6 54 7.0 WNW 15 24 8 13 1007.6 1006.8 0.0
20/05:00pm 30.9 31.7 21.4 57 6.4 NW 19 32 10 17 1007.6 1006.8 0.0
20/04:30pm 31.9 34.5 22.0 55 6.8 NW 11 19 6 10 1006.9 1006.1 0.0
20/04:00pm 32.9 34.0 22.4 54 7.2 WNW 20 30 11 16 1006.5 1005.7 0.0
20/03:30pm 35.5 35.9 19.0 37 10.9 NW 15 22 8 12 1006.3 1005.5 0.0
20/03:00pm 35.9 37.2 17.6 34 11.9 N 7 11 4 6 1006.4 1005.6 0.0
20/02:30pm 36.9 37.0 17.5 32 12.7 NNE 13 20 7 11 1007.0 1006.2 0.0
20/02:00pm 35.9 37.2 17.6 34 11.9 N 7 13 4 7 1007.5 1006.7 0.0
20/01:30pm 35.6 36.2 16.8 32 12.1 NNW 9 17 5 9 1008.1 1007.3 0.0
20/01:00pm 36.4 38.1 18.5 35 11.8 WNW 7 13 4 7 1008.8 1008.0 0.0
20/12:30pm 35.8 37.6 18.8 36 11.2 NNW 7 17 4 9 1009.3 1008.5 0.0
20/12:00pm 35.2 37.2 19.1 38 10.7 W 7 11 4 6 1009.7 1008.9 0.0
20/11:30am 34.3 36.3 19.1 40 10.0 N 7 15 4 8 1010.2 1009.4 0.0
20/11:00am 34.5 36.9 20.1 43 9.6 WNW 7 13 4 7 1010.4 1009.6 0.0
20/10:30am 33.6 36.3 20.7 46 8.7 WNW 7 13 4 7 1010.6 1009.9 0.0
20/10:00am 32.4 35.7 21.9 54 7.2 W 7 15 4 8 1010.9 1010.2 0.0
20/09:30am 31.3 35.3 23.1 61 5.7 W 7 13 4 7 1011.0 1010.3 0.0
20/09:00am 30.1 34.6 24.0 70 4.3 W 7 15 4 8 1011.0 1010.3 0.0
20/08:30am 29.1 33.5 23.8 73 3.7 W 7 11 4 6 1010.9 1010.2 0.0
20/08:00am 28.2 32.9 22.0 69 4.2 CALM 0 4 0 2 1010.9 1010.2 0.0
20/07:30am 27.2 30.8 19.8 64 4.8 CALM 0 4 0 2 1010.8 1010.1 0.0
20/07:00am 25.4 29.3 20.4 74 3.3 CALM 0 6 0 3 1010.4 1009.6 0.0
20/06:30am 23.1 26.9 20.2 84 1.9 CALM 0 0 0 0 1010.1 1009.3 0.0
20/06:00am 22.6 26.2 19.8 84 1.8 CALM 0 0 0 0 1009.7 1008.9 0.0
20/05:30am 22.6 26.2 19.8 84 1.8 CALM 0 0 0 0 1009.3 1008.5 0.0
20/05:00am 22.6 26.0 19.4 82 2.0 CALM 0 0 0 0 1009.0 1008.2 0.0
20/04:30am 22.9 26.4 19.5 81 2.2 CALM 0 0 0 0 1008.9 1008.1 0.0
20/04:00am 23.1 26.6 19.5 80 2.3 CALM 0 0 0 0 1008.9 1008.1 0.0
20/03:30am 23.6 27.2 19.7 79 2.5 CALM 0 0 0 0 1008.8 1008.0 0.0
20/03:00am 23.4 27.0 19.8 80 2.3 CALM 0 0 0 0 1008.8 1008.0 0.0
20/02:30am 23.6 26.9 19.9 80 2.4 W 2 4 1 2 1009.1 1008.3 0.0
20/02:00am 23.8 27.5 19.9 79 2.5 CALM 0 4 0 2 1009.3 1008.5 0.0
20/01:30am 24.1 27.6 19.6 76 2.9 CALM 0 0 0 0 1009.6 1008.8 0.0
20/01:00am 24.4 27.5 19.5 74 3.2 W 2 4 1 2 1009.7 1008.9 0.0
20/12:30am 24.4 28.0 19.7 75 3.0 CALM 0 0 0 0 1009.9 1009.1 0.0
20/12:00am 24.9 28.0 19.5 72 3.5 W 2 2 1 1 1009.8 1009.0 0.0
 
Date/Time
CST
Temp
°C
App
Temp
°C
Dew
Point
°C
Rel
Hum
%
Delta-T
°C
Wind Press
QNH
hPa
Press
MSL
hPa
Rain since
9am
mm
Dir  Spd
km/h
Gust
km/h
Spd
kts
Gust
kts
19/11:30pm 24.8 28.2 19.4 72 3.5 CALM 0 0 0 0 1010.0 1009.2 0.0
19/11:00pm 24.9 28.0 19.5 72 3.5 N 2 4 1 2 1010.2 1009.4 0.0
19/10:30pm 24.9 27.9 19.3 71 3.6 N 2 4 1 2 1010.2 1009.4 0.0
19/10:00pm 25.2 28.0 19.6 71 3.6 NNW 4 7 2 4 1010.2 1009.4 0.0
19/09:30pm 25.2 28.2 19.3 70 3.8 W 2 4 1 2 1009.9 1009.1 0.0
19/09:00pm 25.5 28.1 19.2 68 4.1 W 4 6 2 3 1009.6 1008.8 0.0
19/08:30pm 25.9 27.7 18.8 65 4.6 WNW 7 13 4 7 1009.6 1008.8 0.0
19/08:00pm 26.5 28.7 19.1 64 4.8 WNW 6 9 3 5 1009.2 1008.4 0.0
19/07:30pm 27.3 29.3 19.1 61 5.3 WNW 7 11 4 6 1009.1 1008.3 0.0

Latest Capital City Observations: Canberra | Sydney | Melbourne | Brisbane | Adelaide | Perth | Hobart | Darwin

Other formats

Comma delimited format used in spreadsheet applications
http://www.bom.gov.au/fwo/IDD60901/IDD60901.94125.axf

JavaScript Object Notation format (JSON) in row-major order
http://www.bom.gov.au/fwo/IDD60901/IDD60901.94125.json

Data quality

Most of these data are generated automatically and are frequently updated. Quality checks on data are not normally performed. It is possible for incorrect values to appear. Refer to information at About Latest Weather Observations and please check the disclaimer before using these data.